Time,TemperatureF,DewpointF,PressureIn,WindDirection,WindDirectionDegrees,WindSpeedMPH,WindSpeedGustMPH,Humidity,HourlyPrecipIn,Conditions,Clouds,dailyrainin,SoftwareType,DateUTC
2013-01-26 00:10:00,17.3,14.6,30.01,North,360,0.0,0.0,89,0.00,,,0.00,Wunderground v.1.15,2013-01-26 05:10:00,
2013-01-26 00:20:00,17.3,14.6,30.01,North,360,0.0,0.0,89,0.00,,,0.00,Wunderground v.1.15,2013-01-26 05:20:00,
2013-01-26 00:30:00,17.3,14.6,30.01,North,360,0.0,0.0,89,0.00,,,0.00,Wunderground v.1.15,2013-01-26 05:30:00,
2013-01-26 00:40:00,17.3,14.6,30.01,North,360,0.0,0.0,89,0.00,,,0.00,Wunderground v.1.15,2013-01-26 05:40:00,
2013-01-26 00:50:00,17.4,14.7,30.01,North,360,0.0,0.0,89,0.00,,,0.00,Wunderground v.1.15,2013-01-26 05:50:00,
2013-01-26 01:00:00,17.3,14.6,30.01,North,360,0.0,0.0,89,0.00,,,0.00,Wunderground v.1.15,2013-01-26 06:00:00,
2013-01-26 01:10:00,17.1,14.4,30.00,North,360,0.0,0.0,89,0.00,,,0.00,Wunderground v.1.15,2013-01-26 06:10:00,
2013-01-26 01:20:00,16.9,14.2,30.00,North,360,0.0,0.0,89,0.00,,,0.00,Wunderground v.1.15,2013-01-26 06:20:00,
2013-01-26 01:30:00,16.6,13.9,30.00,North,360,0.0,0.0,89,0.00,,,0.00,Wunderground v.1.15,2013-01-26 06:30:00,
2013-01-26 01:40:00,16.2,13.5,30.00,North,360,0.0,0.0,89,0.00,,,0.00,Wunderground v.1.15,2013-01-26 06:40:00,
2013-01-26 01:50:00,15.8,13.1,30.00,North,360,0.0,0.0,89,0.00,,,0.00,Wunderground v.1.15,2013-01-26 06:50:00,
2013-01-26 02:00:00,15.4,12.7,30.00,North,360,0.0,0.0,89,0.00,,,0.00,Wunderground v.1.15,2013-01-26 07:00:00,
2013-01-26 02:10:00,15.2,12.8,29.99,North,360,0.0,0.0,90,0.00,,,0.00,Wunderground v.1.15,2013-01-26 07:10:00,
2013-01-26 02:20:00,15.0,12.6,29.99,North,360,0.0,0.0,90,0.00,,,0.00,Wunderground v.1.15,2013-01-26 07:20:00,
2013-01-26 02:30:00,14.5,12.1,29.99,North,360,0.0,0.0,90,0.00,,,0.00,Wunderground v.1.15,2013-01-26 07:30:00,
2013-01-26 02:40:00,14.2,11.8,29.98,North,360,0.0,0.0,90,0.00,,,0.00,Wunderground v.1.15,2013-01-26 07:40:00,
2013-01-26 02:50:00,14.1,11.7,29.98,North,360,0.0,0.0,90,0.00,,,0.00,Wunderground v.1.15,2013-01-26 07:50:00,
2013-01-26 02:59:00,13.8,11.4,29.98,North,360,0.0,0.0,90,0.00,,,0.00,Wunderground v.1.15,2013-01-26 07:59:00,
2013-01-26 03:10:00,13.4,11.0,29.98,North,360,0.0,0.0,90,0.00,,,0.00,Wunderground v.1.15,2013-01-26 08:10:00,
2013-01-26 03:20:00,13.1,11.0,29.98,North,360,0.0,0.0,91,0.00,,,0.00,Wunderground v.1.15,2013-01-26 08:20:00,
2013-01-26 03:30:00,12.7,10.6,29.97,North,360,0.0,0.0,91,0.00,,,0.00,Wunderground v.1.15,2013-01-26 08:30:00,
2013-01-26 03:40:00,12.3,9.9,29.97,North,360,0.0,0.0,90,0.00,,,0.00,Wunderground v.1.15,2013-01-26 08:40:00,
2013-01-26 03:50:00,12.1,10.0,29.97,North,360,0.0,0.0,91,0.00,,,0.00,Wunderground v.1.15,2013-01-26 08:50:00,
2013-01-26 04:00:00,12.0,9.9,29.97,North,360,0.0,0.0,91,0.00,,,0.00,Wunderground v.1.15,2013-01-26 09:00:00,
2013-01-26 04:10:00,12.1,10.0,29.97,North,360,0.0,0.0,91,0.00,,,0.00,Wunderground v.1.15,2013-01-26 09:10:00,
2013-01-26 04:20:00,12.2,10.1,29.97,North,360,0.0,0.0,91,0.00,,,0.00,Wunderground v.1.15,2013-01-26 09:20:00,
2013-01-26 04:30:00,12.1,10.0,29.97,North,360,0.0,0.0,91,0.00,,,0.00,Wunderground v.1.15,2013-01-26 09:30:00,
2013-01-26 04:40:00,11.8,9.7,29.97,North,360,0.0,0.0,91,0.00,,,0.00,Wunderground v.1.15,2013-01-26 09:40:00,
2013-01-26 04:49:00,11.4,9.3,29.98,North,360,0.0,0.0,91,0.00,,,0.00,Wunderground v.1.15,2013-01-26 09:49:00,
2013-01-26 05:00:00,11.2,9.1,29.97,North,360,0.0,0.0,91,0.00,,,0.00,Wunderground v.1.15,2013-01-26 10:00:00,
2013-01-26 05:10:00,10.8,8.7,29.98,North,360,0.0,0.0,91,0.00,,,0.00,Wunderground v.1.15,2013-01-26 10:10:00,
2013-01-26 05:20:00,10.4,8.0,29.98,North,360,0.0,0.0,90,0.00,,,0.00,Wunderground v.1.15,2013-01-26 10:20:00,
2013-01-26 05:30:00,9.9,7.6,29.99,North,360,0.0,0.0,90,0.00,,,0.00,Wunderground v.1.15,2013-01-26 10:30:00,
2013-01-26 05:40:00,9.6,7.3,29.99,North,360,0.0,0.0,90,0.00,,,0.00,Wunderground v.1.15,2013-01-26 10:40:00,
2013-01-26 05:50:00,9.6,7.3,29.99,North,360,0.0,0.0,90,0.00,,,0.00,Wunderground v.1.15,2013-01-26 10:50:00,
2013-01-26 06:00:00,9.6,7.3,30.00,North,360,0.0,0.0,90,0.00,,,0.00,Wunderground v.1.15,2013-01-26 11:00:00,
2013-01-26 06:10:00,9.5,9.5,30.00,North,360,0.0,0.0,100,0.00,,,0.00,Wunderground v.1.15,2013-01-26 11:10:00,
2013-01-26 06:20:00,9.5,7.2,30.00,North,360,0.0,0.0,90,0.00,,,0.00,Wunderground v.1.15,2013-01-26 11:20:00,
2013-01-26 06:30:00,9.8,7.7,30.00,North,360,0.0,0.0,91,0.00,,,0.00,Wunderground v.1.15,2013-01-26 11:30:00,
2013-01-26 06:40:00,9.9,7.8,30.00,North,360,0.0,0.0,91,0.00,,,0.00,Wunderground v.1.15,2013-01-26 11:40:00,
2013-01-26 06:50:00,10.1,8.0,30.00,North,10,0.0,0.0,91,0.00,,,0.00,Wunderground v.1.15,2013-01-26 11:50:00,
2013-01-26 07:00:00,10.5,8.4,30.00,NNW,344,0.0,0.0,91,0.00,,,0.00,Wunderground v.1.15,2013-01-26 12:00:00,
2013-01-26 07:10:00,10.7,8.3,30.01,WNW,299,0.0,2.0,90,0.00,,,0.00,Wunderground v.1.15,2013-01-26 12:10:00,
2013-01-26 07:20:00,10.9,8.5,30.01,NW,312,0.0,2.0,90,0.00,,,0.00,Wunderground v.1.15,2013-01-26 12:20:00,
2013-01-26 07:30:00,11.2,8.6,30.01,NE,39,0.0,0.0,89,0.00,,,0.00,Wunderground v.1.15,2013-01-26 12:30:00,
2013-01-26 07:40:00,11.4,8.8,30.02,NE,50,0.0,0.0,89,0.00,,,0.00,Wunderground v.1.15,2013-01-26 12:40:00,
2013-01-26 07:49:00,11.9,9.3,30.02,North,355,0.0,0.0,89,0.00,,,0.00,Wunderground v.1.15,2013-01-26 12:49:00,
2013-01-26 08:00:00,12.3,9.4,30.02,NE,45,1.0,1.0,88,0.00,,,0.00,Wunderground v.1.15,2013-01-26 13:00:00,
2013-01-26 08:10:00,12.7,9.6,30.02,North,360,1.0,1.0,87,0.00,,,0.00,Wunderground v.1.15,2013-01-26 13:10:00,
2013-01-26 08:20:00,13.7,10.3,30.02,NNW,336,0.0,2.0,86,0.00,,,0.00,Wunderground v.1.15,2013-01-26 13:20:00,
2013-01-26 08:30:00,14.5,10.5,30.02,NNW,333,1.0,1.0,84,0.00,,,0.00,Wunderground v.1.15,2013-01-26 13:30:00,
2013-01-26 08:40:00,15.2,10.4,30.02,NNE,30,1.0,1.0,81,0.00,,,0.00,Wunderground v.1.15,2013-01-26 13:40:00,
2013-01-26 08:50:00,16.1,10.4,30.03,WNW,301,1.0,1.0,78,0.00,,,0.00,Wunderground v.1.15,2013-01-26 13:50:00,
2013-01-26 09:00:00,16.2,9.7,30.03,NNW,343,1.0,1.0,75,0.00,,,0.00,Wunderground v.1.15,2013-01-26 14:00:00,
2013-01-26 09:10:00,16.3,9.5,30.03,NNW,346,2.0,4.0,74,0.00,,,0.00,Wunderground v.1.15,2013-01-26 14:10:00,
2013-01-26 09:20:00,16.5,9.4,30.03,ENE,74,2.0,3.0,73,0.00,,,0.00,Wunderground v.1.15,2013-01-26 14:20:00,
2013-01-26 09:30:00,16.9,9.7,30.03,NNW,348,2.0,2.0,73,0.00,,,0.00,Wunderground v.1.15,2013-01-26 14:30:00,
2013-01-26 09:40:00,17.8,9.7,30.03,North,9,2.0,4.0,70,0.00,,,0.00,Wunderground v.1.15,2013-01-26 14:40:00,
2013-01-26 09:50:00,18.1,10.0,30.03,NNE,14,2.0,6.0,70,0.00,,,0.00,Wunderground v.1.15,2013-01-26 14:50:00,
2013-01-26 10:00:00,18.9,10.7,30.03,NW,309,1.0,1.0,70,0.00,,,0.00,Wunderground v.1.15,2013-01-26 15:00:00,
2013-01-26 10:10:00,19.4,9.5,30.03,NNE,26,1.0,1.0,65,0.00,,,0.00,Wunderground v.1.15,2013-01-26 15:10:00,
2013-01-26 10:20:00,19.6,9.7,30.03,West,279,2.0,2.0,65,0.00,,,0.00,Wunderground v.1.15,2013-01-26 15:20:00,
2013-01-26 10:30:00,19.8,9.9,30.03,ENE,63,3.0,3.0,65,0.00,,,0.00,Wunderground v.1.15,2013-01-26 15:30:00,
2013-01-26 10:40:00,20.3,9.7,30.03,NNE,24,2.0,4.0,63,0.00,,,0.00,Wunderground v.1.15,2013-01-26 15:40:00,
2013-01-26 10:50:00,20.9,10.3,30.03,NNW,340,2.0,2.0,63,0.00,,,0.00,Wunderground v.1.15,2013-01-26 15:50:00,
2013-01-26 11:00:00,21.9,10.5,30.02,East,87,2.0,2.0,61,0.00,,,0.00,Wunderground v.1.15,2013-01-26 16:00:00,
2013-01-26 11:10:00,22.5,11.4,30.02,North,349,2.0,2.0,62,0.00,,,0.00,Wunderground v.1.15,2013-01-26 16:10:00,
2013-01-26 11:20:00,22.4,10.2,30.02,NW,325,2.0,2.0,59,0.00,,,0.00,Wunderground v.1.15,2013-01-26 16:20:00,
2013-01-26 11:29:00,21.8,10.0,30.02,North,355,3.0,4.0,60,0.00,,,0.00,Wunderground v.1.15,2013-01-26 16:29:00,
2013-01-26 11:40:00,22.4,11.0,30.01,ENE,71,2.0,2.0,61,0.00,,,0.00,Wunderground v.1.15,2013-01-26 16:40:00,
2013-01-26 11:50:00,22.6,11.2,30.01,NNE,16,2.0,2.0,61,0.00,,,0.00,Wunderground v.1.15,2013-01-26 16:50:00,
2013-01-26 12:00:00,23.4,10.8,30.00,NNW,328,2.0,2.0,58,0.00,,,0.00,Wunderground v.1.15,2013-01-26 17:00:00,
2013-01-26 12:10:00,23.2,9.8,30.00,West,279,3.0,3.0,56,0.00,,,0.00,Wunderground v.1.15,2013-01-26 17:10:00,
2013-01-26 12:20:00,23.6,10.6,30.00,North,360,2.0,4.0,57,0.00,,,0.00,Wunderground v.1.15,2013-01-26 17:20:00,
2013-01-26 12:30:00,24.2,10.7,30.00,NW,309,2.0,5.0,56,0.00,,,0.00,Wunderground v.1.15,2013-01-26 17:30:00,
2013-01-26 12:40:00,24.2,10.3,30.00,NNW,333,3.0,4.0,55,0.00,,,0.00,Wunderground v.1.15,2013-01-26 17:40:00,
2013-01-26 12:50:00,24.8,10.1,29.99,NW,314,2.0,2.0,53,0.00,,,0.00,Wunderground v.1.15,2013-01-26 17:50:00,
2013-01-26 13:00:00,25.2,11.3,29.99,North,10,2.0,2.0,55,0.00,,,0.00,Wunderground v.1.15,2013-01-26 18:00:00,
2013-01-26 13:10:00,25.7,10.9,29.99,NW,325,2.0,2.0,53,0.00,,,0.00,Wunderground v.1.15,2013-01-26 18:10:00,
2013-01-26 13:20:00,25.4,9.3,29.99,North,350,3.0,3.0,50,0.00,,,0.00,Wunderground v.1.15,2013-01-26 18:20:00,
2013-01-26 13:30:00,25.2,10.0,29.99,NW,325,3.0,5.0,52,0.00,,,0.00,Wunderground v.1.15,2013-01-26 18:30:00,
2013-01-26 13:40:00,25.4,9.8,29.99,WNW,288,2.0,6.0,51,0.00,,,0.00,Wunderground v.1.15,2013-01-26 18:40:00,
2013-01-26 13:50:00,25.5,9.9,29.99,NNW,345,3.0,3.0,51,0.00,,,0.00,Wunderground v.1.15,2013-01-26 18:50:00,
2013-01-26 14:00:00,25.6,8.6,29.99,East,92,2.0,2.0,48,0.00,,,0.00,Wunderground v.1.15,2013-01-26 19:00:00,
2013-01-26 14:10:00,25.2,7.8,29.99,WNW,303,3.0,3.0,47,0.00,,,0.00,Wunderground v.1.15,2013-01-26 19:10:00,
2013-01-26 14:20:00,24.9,7.0,30.00,WNW,286,2.0,11.0,46,0.00,,,0.00,Wunderground v.1.15,2013-01-26 19:20:00,
2013-01-26 14:30:00,24.5,6.6,30.00,NNE,22,4.0,5.0,46,0.00,,,0.00,Wunderground v.1.15,2013-01-26 19:30:00,
2013-01-26 14:40:00,24.4,6.1,30.01,NW,304,4.0,4.0,45,0.00,,,0.00,Wunderground v.1.15,2013-01-26 19:40:00,
2013-01-26 14:49:00,24.3,5.5,30.01,West,269,4.0,4.0,44,0.00,,,0.00,Wunderground v.1.15,2013-01-26 19:49:00,
2013-01-26 15:00:00,24.7,5.3,30.01,WNW,291,2.0,12.0,43,0.00,,,0.00,Wunderground v.1.15,2013-01-26 20:00:00,
2013-01-26 15:10:00,24.2,5.4,30.02,NNW,327,4.0,4.0,44,0.00,,,0.00,Wunderground v.1.15,2013-01-26 20:10:00,
2013-01-26 15:20:00,24.2,4.9,30.02,NNW,334,3.0,3.0,43,0.00,,,0.00,Wunderground v.1.15,2013-01-26 20:20:00,
2013-01-26 15:30:00,24.4,5.1,30.03,NW,313,3.0,5.0,43,0.00,,,0.00,Wunderground v.1.15,2013-01-26 20:30:00,
2013-01-26 15:40:00,24.2,5.9,30.03,NE,46,2.0,4.0,45,0.00,,,0.00,Wunderground v.1.15,2013-01-26 20:40:00,
2013-01-26 15:50:00,24.0,5.2,30.04,WNW,285,3.0,4.0,44,0.00,,,0.00,Wunderground v.1.15,2013-01-26 20:50:00,
2013-01-26 16:00:00,23.9,5.1,30.04,North,5,2.0,2.0,44,0.00,,,0.00,Wunderground v.1.15,2013-01-26 21:00:00,
2013-01-26 16:10:00,23.5,4.8,30.04,North,355,3.0,5.0,44,0.00,,,0.00,Wunderground v.1.15,2013-01-26 21:10:00,
2013-01-26 16:20:00,23.4,5.2,30.05,NE,44,2.0,2.0,45,0.00,,,0.00,Wunderground v.1.15,2013-01-26 21:20:00,
2013-01-26 16:30:00,23.0,4.8,30.06,ENE,70,1.0,1.0,45,0.00,,,0.00,Wunderground v.1.15,2013-01-26 21:30:00,
2013-01-26 16:40:00,22.6,4.4,30.06,NE,52,2.0,2.0,45,0.00,,,0.00,Wunderground v.1.15,2013-01-26 21:40:00,
2013-01-26 16:50:00,22.4,4.2,30.06,NNE,26,1.0,1.0,45,0.00,,,0.00,Wunderground v.1.15,2013-01-26 21:50:00,
2013-01-26 17:00:00,22.1,3.5,30.07,WNW,298,1.0,1.0,44,0.00,,,0.00,Wunderground v.1.15,2013-01-26 22:00:00,
2013-01-26 17:10:00,22.0,2.9,30.07,North,5,4.0,4.0,43,0.00,,,0.00,Wunderground v.1.15,2013-01-26 22:10:00,
2013-01-26 17:20:00,21.7,2.1,30.08,NNE,26,2.0,9.0,42,0.00,,,0.00,Wunderground v.1.15,2013-01-26 22:20:00,
2013-01-26 17:30:00,21.0,-0.1,30.08,North,10,5.0,12.0,39,0.00,,,0.00,Wunderground v.1.15,2013-01-26 22:30:00,
2013-01-26 17:40:00,20.5,-0.6,30.09,NNW,345,5.0,5.0,39,0.00,,,0.00,Wunderground v.1.15,2013-01-26 22:40:00,
2013-01-26 17:50:00,20.1,-0.4,30.09,NNW,333,2.0,2.0,40,0.00,,,0.00,Wunderground v.1.15,2013-01-26 22:50:00,
2013-01-26 18:00:00,19.7,-0.2,30.10,NW,318,1.0,1.0,41,0.00,,,0.00,Wunderground v.1.15,2013-01-26 23:00:00,
2013-01-26 18:10:00,19.3,-0.1,30.10,NNE,32,0.0,4.0,42,0.00,,,0.00,Wunderground v.1.15,2013-01-26 23:10:00,
2013-01-26 18:20:00,19.2,-0.7,30.11,NNE,32,2.0,2.0,41,0.00,,,0.00,Wunderground v.1.15,2013-01-26 23:20:00,
2013-01-26 18:30:00,19.3,-0.6,30.12,NW,325,2.0,2.0,41,0.00,,,0.00,Wunderground v.1.15,2013-01-26 23:30:00,
2013-01-26 18:40:00,19.2,-0.7,30.13,NW,317,2.0,5.0,41,0.00,,,0.00,Wunderground v.1.15,2013-01-26 23:40:00,
2013-01-26 18:50:00,19.1,-1.3,30.13,WNW,294,4.0,4.0,40,0.00,,,0.00,Wunderground v.1.15,2013-01-26 23:50:00,
2013-01-26 19:00:00,19.0,-1.4,30.13,NNW,345,4.0,4.0,40,0.00,,,0.00,Wunderground v.1.15,2013-01-27 00:00:00,
2013-01-26 19:10:00,18.6,-0.7,30.13,WSW,248,4.0,4.0,42,0.00,,,0.00,Wunderground v.1.15,2013-01-27 00:10:00,
2013-01-26 19:20:00,18.4,-0.4,30.13,WNW,300,4.0,9.0,43,0.00,,,0.00,Wunderground v.1.15,2013-01-27 00:20:00,
2013-01-26 19:30:00,18.2,0.4,30.13,NW,317,4.0,4.0,45,0.00,,,0.00,Wunderground v.1.15,2013-01-27 00:30:00,
2013-01-26 19:40:00,18.0,0.7,30.14,WNW,297,3.0,3.0,46,0.00,,,0.00,Wunderground v.1.15,2013-01-27 00:40:00,
2013-01-26 19:50:00,17.9,1.5,30.14,NW,321,3.0,3.0,48,0.00,,,0.00,Wunderground v.1.15,2013-01-27 00:50:00,
2013-01-26 20:00:00,17.8,1.4,30.15,North,355,3.0,4.0,48,0.00,,,0.00,Wunderground v.1.15,2013-01-27 01:00:00,
2013-01-26 20:10:00,17.6,1.7,30.15,NNE,19,3.0,3.0,49,0.00,,,0.00,Wunderground v.1.15,2013-01-27 01:10:00,
2013-01-26 20:19:00,17.4,1.9,30.15,NW,324,2.0,2.0,50,0.00,,,0.00,Wunderground v.1.15,2013-01-27 01:19:00,
2013-01-26 20:30:00,17.2,1.7,30.15,NW,311,2.0,2.0,50,0.00,,,0.00,Wunderground v.1.15,2013-01-27 01:30:00,
2013-01-26 20:40:00,17.1,2.1,30.15,NNE,28,3.0,3.0,51,0.00,,,0.00,Wunderground v.1.15,2013-01-27 01:40:00,
2013-01-26 20:50:00,16.9,1.9,30.16,NE,46,1.0,2.0,51,0.00,,,0.00,Wunderground v.1.15,2013-01-27 01:50:00,
2013-01-26 21:00:00,16.8,1.8,30.16,ENE,78,2.0,2.0,51,0.00,,,0.00,Wunderground v.1.15,2013-01-27 02:00:00,
2013-01-26 21:10:00,16.6,2.0,30.17,NNW,331,2.0,2.0,52,0.00,,,0.00,Wunderground v.1.15,2013-01-27 02:10:00,
2013-01-26 21:19:00,16.3,2.1,30.17,WNW,299,1.0,4.0,53,0.00,,,0.00,Wunderground v.1.15,2013-01-27 02:19:00,
2013-01-26 21:30:00,16.3,2.5,30.17,NNE,13,2.0,12.0,54,0.00,,,0.00,Wunderground v.1.15,2013-01-27 02:30:00,
2013-01-26 21:40:00,16.2,2.4,30.17,NW,310,3.0,3.0,54,0.00,,,0.00,Wunderground v.1.15,2013-01-27 02:40:00,
2013-01-26 21:50:00,16.1,2.4,30.18,North,9,2.0,2.0,54,0.00,,,0.00,Wunderground v.1.15,2013-01-27 02:50:00,
2013-01-26 22:00:00,15.8,2.5,30.18,WNW,302,1.0,1.0,55,0.00,,,0.00,Wunderground v.1.15,2013-01-27 03:00:00,
2013-01-26 22:10:00,15.7,2.4,30.19,NW,321,1.0,1.0,55,0.00,,,0.00,Wunderground v.1.15,2013-01-27 03:10:00,
2013-01-26 22:20:00,15.6,2.3,30.19,NNE,31,2.0,2.0,55,0.00,,,0.00,Wunderground v.1.15,2013-01-27 03:20:00,
2013-01-26 22:29:00,15.5,2.6,30.19,WNW,294,1.0,4.0,56,0.00,,,0.00,Wunderground v.1.15,2013-01-27 03:29:00,
2013-01-26 22:40:00,15.4,2.9,30.20,NNE,15,2.0,3.0,57,0.00,,,0.00,Wunderground v.1.15,2013-01-27 03:40:00,
2013-01-26 22:50:00,15.3,3.1,30.20,NW,313,1.0,1.0,58,0.00,,,0.00,Wunderground v.1.15,2013-01-27 03:50:00,
2013-01-26 22:59:00,15.2,3.1,30.20,NW,318,1.0,1.0,58,0.00,,,0.00,Wunderground v.1.15,2013-01-27 03:59:00,
2013-01-26 23:10:00,15.2,3.1,30.20,NNW,342,1.0,4.0,58,0.00,,,0.00,Wunderground v.1.15,2013-01-27 04:10:00,
2013-01-26 23:20:00,15.1,3.3,30.20,West,280,2.0,2.0,59,0.00,,,0.00,Wunderground v.1.15,2013-01-27 04:20:00,
2013-01-26 23:30:00,15.0,3.2,30.21,NNE,13,1.0,1.0,59,0.00,,,0.00,Wunderground v.1.15,2013-01-27 04:30:00,
2013-01-26 23:40:00,15.0,3.2,30.21,NNE,22,2.0,5.0,59,0.00,,,0.00,Wunderground v.1.15,2013-01-27 04:40:00,
2013-01-26 23:50:00,15.0,3.6,30.21,NE,34,1.0,1.0,60,0.00,,,0.00,Wunderground v.1.15,2013-01-27 04:50:00,